createdAt,value
2018-09-21T00:01:21.173Z,54.45
2018-09-21T00:03:55.168Z,54.63
2018-09-21T00:06:24.525Z,54.51
2018-09-21T00:08:54.279Z,54.62
2018-09-21T00:11:23.286Z,53.86
2018-09-21T00:13:52.555Z,54.03
2018-09-21T00:16:22.093Z,53.36
2018-09-21T00:18:51.197Z,53.76
2018-09-21T00:21:20.441Z,54.01
2018-09-21T00:23:49.328Z,53.96
2018-09-21T00:26:18.249Z,53.79
2018-09-21T00:28:47.521Z,54.48
2018-09-21T00:31:16.428Z,55.16
2018-09-21T00:33:45.269Z,54.41
2018-09-21T00:36:14.649Z,54.39
2018-09-21T00:38:43.496Z,54.44
2018-09-21T00:41:12.373Z,54.20
2018-09-21T00:43:41.637Z,53.82
2018-09-21T00:46:10.512Z,53.02
2018-09-21T00:48:39.381Z,52.85
2018-09-21T00:51:08.676Z,53.47
2018-09-21T00:53:37.564Z,52.77
2018-09-21T00:56:06.407Z,52.42
2018-09-21T00:58:35.634Z,52.19
2018-09-21T01:01:04.548Z,52.34
2018-09-21T01:03:33.404Z,51.97
2018-09-21T01:06:03.312Z,51.86
2018-09-21T01:08:32.179Z,51.97
2018-09-21T01:11:01.081Z,51.22
2018-09-21T01:13:30.279Z,51.97
2018-09-21T01:15:59.232Z,51.43
2018-09-21T01:18:28.076Z,51.76
2018-09-21T01:20:57.500Z,51.69
2018-09-21T01:23:26.378Z,50.94
2018-09-21T01:25:55.466Z,51.09
2018-09-21T01:28:24.746Z,50.70
2018-09-21T01:30:53.571Z,51.25
2018-09-21T01:33:22.395Z,52.01
2018-09-21T01:35:52.666Z,52.03
2018-09-21T01:38:21.529Z,51.89
2018-09-21T01:40:50.385Z,51.33
2018-09-21T01:43:19.821Z,51.54
2018-09-21T01:45:48.682Z,52.01
2018-09-21T01:48:18.513Z,52.78
2018-09-21T01:50:47.907Z,52.15
2018-09-21T01:53:16.758Z,52.80
2018-09-21T01:55:45.662Z,53.13
2018-09-21T01:58:14.808Z,52.45
2018-09-21T02:00:43.685Z,53.31
2018-09-21T02:03:12.564Z,53.07
2018-09-21T02:05:41.837Z,53.82
2018-09-21T02:08:10.802Z,54.00
2018-09-21T02:10:39.702Z,54.69
2018-09-21T02:13:08.616Z,54.62
2018-09-21T02:15:37.966Z,55.51
2018-09-21T02:18:06.793Z,55.98
2018-09-21T02:20:35.765Z,56.25
2018-09-21T02:23:04.644Z,56.14
2018-09-21T02:25:33.878Z,56.59
2018-09-21T02:28:03.456Z,57.05
2018-09-21T02:30:32.385Z,57.94
2018-09-21T02:33:01.589Z,58.03
2018-09-21T02:35:30.416Z,57.81
2018-09-21T02:37:59.305Z,57.30
2018-09-21T02:40:28.283Z,57.57
2018-09-21T02:42:57.142Z,57.60
2018-09-21T02:45:26.356Z,57.85
2018-09-21T02:47:55.227Z,59.17
2018-09-21T02:50:24.229Z,58.33
2018-09-21T02:52:53.097Z,58.17
2018-09-21T02:55:21.966Z,58.01
2018-09-21T02:57:51.404Z,58.95
2018-09-21T03:00:20.343Z,58.67
2018-09-21T03:02:49.178Z,59.07
2018-09-21T03:05:18.176Z,59.74
2018-09-21T03:07:47.044Z,59.67
2018-09-21T03:10:16.599Z,59.15
2018-09-21T03:12:45.529Z,58.99
2018-09-21T03:15:14.507Z,59.55
2018-09-21T03:17:43.909Z,59.71
2018-09-21T03:20:12.800Z,58.77
2018-09-21T03:22:41.666Z,58.66
2018-09-21T03:25:10.928Z,58.96
2018-09-21T03:27:39.809Z,58.66
2018-09-21T03:30:08.726Z,58.43
2018-09-21T03:32:37.914Z,58.45
2018-09-21T03:35:06.969Z,58.89
2018-09-21T03:37:35.814Z,60.58
2018-09-21T03:40:05.730Z,59.91
2018-09-21T03:42:34.599Z,59.73
2018-09-21T03:45:03.490Z,59.86
2018-09-21T03:47:32.716Z,60.26
2018-09-21T03:50:01.625Z,60.04
2018-09-21T03:52:30.537Z,60.67
2018-09-21T03:54:59.800Z,61.04
2018-09-21T03:57:28.657Z,60.72
2018-09-21T03:59:57.550Z,60.42
2018-09-21T04:02:26.845Z,61.24
2018-09-21T04:04:55.741Z,60.71
2018-09-21T04:07:24.655Z,60.68
2018-09-21T04:09:53.781Z,61.35
2018-09-21T04:12:23.072Z,60.78
2018-09-21T04:14:51.984Z,61.08
2018-09-21T04:17:21.981Z,61.36
2018-09-21T04:19:50.873Z,61.03
2018-09-21T04:22:20.003Z,61.33
2018-09-21T04:24:48.905Z,60.91
2018-09-21T04:27:17.797Z,61.10
2018-09-21T04:29:47.162Z,60.86
2018-09-21T04:32:16.210Z,61.25
2018-09-21T04:34:45.115Z,61.68
2018-09-21T04:37:14.357Z,61.02
2018-09-21T04:39:44.185Z,61.49
2018-09-21T04:42:13.114Z,61.38
2018-09-21T04:44:42.351Z,61.60
2018-09-21T04:47:11.271Z,61.24
2018-09-21T04:49:40.169Z,61.63
2018-09-21T04:52:09.398Z,61.76
2018-09-21T04:54:38.287Z,61.64
2018-09-21T04:57:07.134Z,61.42
2018-09-21T04:59:36.438Z,61.63
2018-09-21T05:02:06.053Z,61.21
2018-09-21T05:04:34.978Z,61.09
2018-09-21T05:07:04.317Z,61.75
2018-09-21T05:09:33.242Z,62.08
2018-09-21T05:12:02.954Z,61.23
2018-09-21T05:14:32.238Z,61.93
2018-09-21T05:17:01.102Z,61.67
2018-09-21T05:19:29.970Z,61.25
2018-09-21T05:21:59.227Z,61.44
2018-09-21T05:24:28.144Z,60.80
2018-09-21T05:26:57.035Z,60.81
2018-09-21T05:29:26.239Z,60.98
2018-09-21T05:31:55.194Z,60.73
2018-09-21T05:34:24.066Z,59.95
2018-09-21T05:36:53.261Z,60.32
2018-09-21T05:39:22.200Z,59.72
2018-09-21T05:41:51.102Z,59.73
2018-09-21T05:44:20.583Z,59.67
2018-09-21T05:46:49.537Z,59.85
2018-09-21T05:49:18.937Z,59.02
2018-09-21T05:51:47.911Z,59.32
2018-09-21T05:54:17.153Z,60.01
2018-09-21T05:56:47.255Z,60.06
2018-09-21T05:59:16.142Z,60.20
2018-09-21T06:01:45.029Z,61.29
2018-09-21T06:04:14.361Z,60.95
2018-09-21T06:06:43.280Z,61.08
2018-09-21T06:09:13.598Z,60.89
2018-09-21T06:11:43.449Z,60.72
2018-09-21T06:14:13.002Z,61.92
2018-09-21T06:16:41.850Z,61.73
2018-09-21T06:19:11.275Z,61.15
2018-09-21T06:21:40.128Z,61.02
2018-09-21T06:24:08.992Z,60.83
2018-09-21T06:26:38.098Z,61.38
2018-09-21T06:29:06.974Z,61.25
2018-09-21T06:31:35.825Z,61.31
2018-09-21T06:34:06.608Z,60.22
2018-09-21T06:36:35.492Z,60.57
2018-09-21T06:39:06.283Z,60.11
2018-09-21T06:41:35.174Z,60.00
2018-09-21T06:44:04.856Z,59.99
2018-09-21T06:46:34.591Z,59.86
2018-09-21T06:49:03.555Z,60.63
2018-09-21T06:51:32.475Z,60.31
2018-09-21T06:54:03.112Z,60.03
2018-09-21T06:56:38.603Z,60.42
2018-09-21T06:59:08.182Z,60.44
2018-09-21T07:01:37.063Z,61.39
2018-09-21T07:04:06.301Z,60.66
2018-09-21T07:06:35.163Z,60.97
2018-09-21T07:09:06.857Z,61.11
2018-09-21T07:11:36.040Z,60.68
2018-09-21T07:14:07.479Z,60.43
2018-09-21T07:16:36.342Z,60.77
2018-09-21T07:19:05.721Z,61.52
2018-09-21T07:21:34.566Z,61.01
2018-09-21T07:24:05.422Z,61.56
2018-09-21T07:26:34.843Z,61.51
2018-09-21T07:29:03.748Z,61.50
2018-09-21T07:31:32.581Z,61.77
2018-09-21T07:34:01.898Z,61.77
2018-09-21T07:36:31.177Z,61.56
2018-09-21T07:39:00.079Z,61.73
2018-09-21T07:41:29.341Z,62.00
2018-09-21T07:43:58.294Z,61.97
2018-09-21T07:46:27.265Z,61.20
2018-09-21T07:48:56.483Z,61.64
2018-09-21T07:51:25.462Z,61.59
2018-09-21T07:53:54.355Z,60.67
2018-09-21T07:56:23.707Z,59.88
2018-09-21T07:58:52.597Z,59.77
2018-09-21T08:01:21.467Z,59.51
2018-09-21T08:03:50.854Z,60.02
2018-09-21T08:06:19.974Z,59.21
2018-09-21T08:08:48.921Z,58.83
2018-09-21T08:11:18.085Z,59.11
2018-09-21T08:13:47.045Z,58.17
2018-09-21T08:16:16.049Z,58.37
2018-09-21T08:18:44.888Z,57.53
2018-09-21T08:21:13.781Z,57.67
2018-09-21T08:23:42.909Z,57.39
2018-09-21T08:26:11.911Z,57.55
2018-09-21T08:28:40.840Z,57.39
2018-09-21T08:31:09.648Z,57.85
2018-09-21T08:33:39.291Z,57.41
2018-09-21T08:36:10.693Z,57.53
2018-09-21T08:38:39.580Z,57.08
2018-09-21T08:41:08.551Z,56.18
2018-09-21T08:43:37.715Z,54.77
2018-09-21T08:46:06.622Z,54.73
2018-09-21T08:48:35.584Z,53.36
2018-09-21T08:51:05.108Z,52.84
2018-09-21T08:53:33.966Z,51.81
2018-09-21T08:56:03.447Z,51.44
2018-09-21T08:58:32.743Z,50.93
2018-09-21T09:01:01.700Z,50.12
2018-09-21T09:03:30.619Z,49.53
2018-09-21T09:05:59.529Z,49.35
2018-09-21T09:08:28.386Z,48.79
2018-09-21T09:10:57.256Z,48.82
2018-09-21T09:13:26.405Z,47.89
2018-09-21T09:15:55.242Z,48.14
2018-09-21T09:18:24.159Z,48.37
2018-09-21T09:20:53.085Z,47.94
2018-09-21T09:23:21.967Z,47.84
2018-09-21T09:25:51.297Z,48.00
2018-09-21T09:28:20.213Z,48.31
2018-09-21T09:30:49.070Z,48.66
2018-09-21T09:33:18.346Z,48.69
2018-09-21T09:35:47.198Z,48.20
2018-09-21T09:38:17.083Z,48.74
2018-09-21T09:40:46.275Z,48.45
2018-09-21T09:43:21.446Z,47.99
2018-09-21T09:45:50.384Z,48.78
2018-09-21T09:48:19.360Z,48.41
2018-09-21T09:50:48.198Z,47.83
2018-09-21T09:53:17.437Z,48.26
2018-09-21T09:55:46.301Z,47.15
2018-09-21T09:58:15.195Z,46.16
2018-09-21T10:00:49.541Z,47.13
2018-09-21T10:03:18.413Z,47.90
2018-09-21T10:05:47.280Z,48.19
2018-09-21T10:08:16.295Z,46.62
2018-09-21T10:10:45.239Z,46.61
2018-09-21T10:13:14.502Z,46.16
2018-09-21T10:15:43.513Z,44.84
2018-09-21T10:18:12.449Z,44.94
2018-09-21T10:20:41.688Z,46.45
2018-09-21T10:23:10.714Z,45.03
2018-09-21T10:25:39.625Z,45.58
2018-09-21T10:28:09.051Z,45.77
2018-09-21T10:30:38.044Z,44.46
2018-09-21T10:33:07.051Z,44.73
2018-09-21T10:35:36.573Z,44.19
2018-09-21T10:38:06.616Z,42.23
2018-09-21T10:40:35.498Z,42.76
2018-09-21T10:43:04.498Z,43.82
2018-09-21T10:45:33.348Z,44.06
2018-09-21T10:48:03.243Z,43.91
2018-09-21T10:50:32.148Z,44.32
2018-09-21T10:53:01.152Z,43.49
2018-09-21T10:55:30.114Z,43.28
2018-09-21T10:57:58.962Z,44.00
2018-09-21T11:00:28.246Z,43.04
2018-09-21T11:02:57.177Z,43.79
2018-09-21T11:05:26.159Z,43.42
2018-09-21T11:07:55.361Z,44.00
2018-09-21T11:10:24.245Z,44.29
2018-09-21T11:12:53.379Z,44.22
2018-09-21T11:15:22.668Z,44.49
2018-09-21T11:17:51.566Z,44.22
2018-09-21T11:20:20.437Z,44.08
2018-09-21T11:22:49.637Z,43.88
2018-09-21T11:25:18.500Z,43.80
2018-09-21T11:27:56.099Z,43.98
2018-09-21T11:30:25.342Z,44.26
2018-09-21T11:32:54.238Z,43.89
2018-09-21T11:35:23.074Z,43.30
2018-09-21T11:37:52.330Z,43.01
2018-09-21T11:40:21.374Z,43.06
2018-09-21T11:42:50.285Z,43.41
2018-09-21T11:45:19.466Z,44.46
2018-09-21T11:47:48.414Z,44.19
2018-09-21T11:50:17.258Z,45.15
2018-09-21T11:52:47.477Z,44.10
2018-09-21T11:55:16.358Z,44.23
2018-09-21T11:57:45.298Z,43.79
2018-09-21T12:00:15.563Z,43.09
2018-09-21T12:02:44.566Z,42.11
2018-09-21T12:05:13.499Z,42.53
2018-09-21T12:07:42.394Z,43.02
2018-09-21T12:10:11.297Z,43.75
2018-09-21T12:12:40.708Z,42.69
2018-09-21T12:15:09.573Z,43.42
2018-09-21T12:17:38.509Z,43.52
2018-09-21T12:20:07.702Z,43.80
2018-09-21T12:22:36.658Z,43.14
2018-09-21T12:25:05.593Z,44.12
2018-09-21T12:27:34.822Z,43.51
2018-09-21T12:30:04.729Z,43.76
2018-09-21T12:32:33.577Z,44.15
2018-09-21T12:35:02.832Z,44.08
2018-09-21T12:37:31.764Z,44.07
2018-09-21T12:40:00.677Z,44.27
2018-09-21T12:42:29.967Z,44.20
2018-09-21T12:44:58.744Z,44.23
2018-09-21T12:47:27.683Z,43.50
2018-09-21T12:49:56.878Z,44.59
2018-09-21T12:52:25.766Z,44.07
2018-09-21T12:54:54.593Z,43.46
2018-09-21T12:57:23.748Z,43.70
2018-09-21T12:59:52.958Z,44.51
2018-09-21T13:02:21.840Z,44.45
2018-09-21T13:04:51.063Z,43.67
2018-09-21T13:07:19.960Z,44.33
2018-09-21T13:09:48.792Z,43.69
2018-09-21T13:12:19.149Z,44.69
2018-09-21T13:14:48.052Z,44.06
2018-09-21T13:17:17.061Z,45.36
2018-09-21T13:19:45.927Z,45.56
2018-09-21T13:22:14.819Z,44.99
2018-09-21T13:24:44.018Z,45.06
2018-09-21T13:27:12.857Z,45.81
2018-09-21T13:29:41.792Z,45.72
2018-09-21T13:32:10.723Z,47.06
2018-09-21T13:34:39.889Z,47.78
2018-09-21T13:37:09.029Z,48.26
2018-09-21T13:39:37.860Z,48.74
2018-09-21T13:42:06.685Z,49.25
2018-09-21T13:44:35.594Z,49.89
2018-09-21T13:47:04.473Z,51.49
2018-09-21T13:49:33.880Z,51.79
2018-09-21T13:52:03.440Z,53.02
2018-09-21T13:54:32.295Z,54.34
2018-09-21T13:57:01.673Z,54.11
2018-09-21T13:59:30.658Z,55.90
2018-09-21T14:01:59.570Z,56.56
2018-09-21T14:04:28.775Z,57.14
2018-09-21T14:06:57.718Z,57.67
2018-09-21T14:09:30.147Z,60.96
2018-09-21T14:11:59.912Z,62.01
2018-09-21T14:14:28.761Z,62.92
2018-09-21T14:16:57.913Z,63.35
2018-09-21T14:19:27.029Z,63.49
2018-09-21T14:21:56.230Z,63.58
2018-09-21T14:24:25.664Z,61.33
2018-09-21T14:26:54.661Z,60.86
2018-09-21T14:29:23.612Z,59.95
2018-09-21T14:31:52.501Z,60.13
2018-09-21T14:34:21.394Z,56.18
2018-09-21T14:36:51.067Z,56.00
2018-09-21T14:39:20.028Z,54.34
2018-09-21T14:41:48.899Z,56.21
2018-09-21T14:44:17.817Z,55.95
2018-09-21T14:46:46.746Z,54.61
2018-09-21T14:49:16.132Z,53.56
2018-09-21T14:51:45.159Z,55.12
2018-09-21T14:54:14.026Z,55.10
2018-09-21T14:56:42.949Z,56.03
2018-09-21T14:59:11.789Z,57.27
2018-09-21T15:01:41.199Z,56.96
2018-09-21T15:04:10.164Z,57.11
2018-09-21T15:06:39.088Z,55.67
2018-09-21T15:09:10.505Z,54.79
2018-09-21T15:11:39.767Z,55.04
2018-09-21T15:14:08.732Z,55.05
2018-09-21T15:16:38.503Z,54.49
2018-09-21T15:19:07.373Z,55.31
2018-09-21T15:21:36.246Z,55.34
2018-09-21T15:24:06.260Z,56.78
2018-09-21T15:26:35.139Z,57.03
2018-09-21T15:29:04.062Z,56.78
2018-09-21T15:31:33.267Z,57.09
2018-09-21T15:34:03.166Z,57.43
2018-09-21T15:36:32.046Z,57.89
2018-09-21T15:39:01.291Z,57.96
2018-09-21T15:41:30.261Z,58.12
2018-09-21T15:43:59.132Z,57.88
2018-09-21T15:46:27.976Z,57.88
2018-09-21T15:48:56.894Z,58.03
2018-09-21T15:51:26.063Z,57.22
2018-09-21T15:53:54.962Z,57.71
2018-09-21T15:56:23.787Z,57.95
2018-09-21T15:58:53.064Z,57.13
2018-09-21T16:01:22.028Z,57.24
2018-09-21T16:03:50.882Z,57.63
2018-09-21T16:06:20.266Z,56.90
2018-09-21T16:08:49.159Z,56.46
2018-09-21T16:11:18.122Z,56.17
2018-09-21T16:13:47.462Z,56.38
2018-09-21T16:16:17.384Z,55.14
2018-09-21T16:18:46.318Z,55.45
2018-09-21T16:21:15.557Z,55.32
2018-09-21T16:23:44.686Z,55.79
2018-09-21T16:26:13.651Z,55.67
2018-09-21T16:28:42.975Z,55.23
2018-09-21T16:31:11.865Z,54.73
2018-09-21T16:33:40.756Z,55.46
2018-09-21T16:36:10.179Z,55.23
2018-09-21T16:38:39.129Z,56.88
2018-09-21T16:41:08.085Z,56.35
2018-09-21T16:43:37.254Z,56.53
2018-09-21T16:46:07.382Z,57.95
2018-09-21T16:48:36.238Z,58.49
2018-09-21T16:51:05.644Z,58.28
2018-09-21T16:53:34.615Z,57.49
2018-09-21T16:56:05.039Z,58.09
2018-09-21T16:58:34.400Z,58.59
2018-09-21T17:01:03.350Z,59.02
2018-09-21T17:03:32.218Z,58.31
2018-09-21T17:06:01.516Z,58.46
2018-09-21T17:08:30.481Z,58.37
2018-09-21T17:10:59.458Z,57.96
2018-09-21T17:13:28.800Z,58.77
2018-09-21T17:15:57.771Z,59.28
2018-09-21T17:18:26.807Z,59.23
2018-09-21T17:20:55.757Z,58.70
2018-09-21T17:23:24.720Z,59.21
2018-09-21T17:25:54.339Z,58.76
2018-09-21T17:28:23.246Z,58.81
2018-09-21T17:30:52.433Z,59.17
2018-09-21T17:33:21.718Z,58.50
2018-09-21T17:35:50.636Z,58.46
2018-09-21T17:38:19.989Z,59.41
2018-09-21T17:40:48.930Z,59.95
2018-09-21T17:43:17.846Z,59.12
2018-09-21T17:45:47.047Z,58.57
2018-09-21T17:48:16.018Z,58.55
2018-09-21T17:50:44.982Z,58.79
2018-09-21T17:53:14.482Z,59.01
2018-09-21T17:55:43.387Z,58.71
2018-09-21T17:58:12.275Z,59.05
2018-09-21T18:00:41.517Z,59.79
2018-09-21T18:03:10.349Z,58.89
2018-09-21T18:05:39.441Z,59.65
2018-09-21T18:08:08.744Z,58.45
2018-09-21T18:10:37.751Z,59.19
2018-09-21T18:13:06.734Z,59.54
2018-09-21T18:15:35.993Z,59.49
2018-09-21T18:18:07.044Z,59.74
2018-09-21T18:20:35.973Z,60.79
2018-09-21T18:23:04.884Z,60.99
2018-09-21T18:25:33.839Z,61.21
2018-09-21T18:28:04.865Z,61.81
2018-09-21T18:30:34.090Z,61.73
2018-09-21T18:33:03.004Z,61.47
2018-09-21T18:35:31.892Z,60.82
2018-09-21T18:38:01.071Z,60.49
2018-09-21T18:40:29.982Z,61.10
2018-09-21T18:42:58.904Z,61.61
2018-09-21T18:45:27.810Z,61.48
2018-09-21T18:47:56.730Z,61.91
2018-09-21T18:50:26.061Z,62.02
2018-09-21T18:52:55.066Z,61.46
2018-09-21T18:55:23.944Z,60.50
2018-09-21T18:57:52.810Z,60.24
2018-09-21T19:00:21.687Z,60.47
2018-09-21T19:02:50.963Z,60.75
2018-09-21T19:05:19.875Z,60.60
2018-09-21T19:07:48.837Z,59.70
2018-09-21T19:10:18.243Z,59.43
2018-09-21T19:12:47.320Z,59.71
2018-09-21T19:15:17.208Z,60.22
2018-09-21T19:17:46.434Z,59.60
2018-09-21T19:20:16.325Z,60.81
2018-09-21T19:22:45.184Z,61.20
2018-09-21T19:25:14.407Z,60.68
2018-09-21T19:27:43.320Z,60.27
2018-09-21T19:30:12.324Z,58.88
2018-09-21T19:32:41.596Z,60.83
2018-09-21T19:35:10.674Z,61.44
2018-09-21T19:37:39.579Z,62.46
2018-09-21T19:40:08.910Z,62.56
2018-09-21T19:42:37.930Z,64.75
2018-09-21T19:45:07.173Z,64.57
2018-09-21T19:47:36.604Z,65.39
2018-09-21T19:50:06.795Z,67.72
2018-09-21T19:52:35.714Z,67.74
2018-09-21T19:55:05.556Z,68.05
2018-09-21T19:57:34.493Z,67.86
2018-09-21T20:00:04.429Z,68.24
2018-09-21T20:02:33.591Z,67.99
2018-09-21T20:05:02.505Z,68.73
2018-09-21T20:07:31.397Z,68.05
2018-09-21T20:10:00.278Z,67.79
2018-09-21T20:12:29.138Z,67.27
2018-09-21T20:14:58.357Z,67.32
2018-09-21T20:17:27.268Z,67.14
2018-09-21T20:19:56.372Z,65.00
2018-09-21T20:22:25.784Z,58.49
2018-09-21T20:24:54.628Z,55.29
2018-09-21T20:27:23.633Z,54.67
2018-09-21T20:29:57.073Z,54.21
2018-09-21T20:32:30.967Z,54.61
2018-09-21T20:34:59.913Z,51.85
2018-09-21T20:37:29.194Z,50.74
2018-09-21T20:39:58.042Z,51.52
2018-09-21T20:42:27.072Z,50.26
2018-09-21T20:44:56.222Z,50.90
2018-09-21T20:47:25.137Z,50.98
2018-09-21T20:49:54.061Z,50.25
2018-09-21T20:52:23.232Z,54.11
2018-09-21T20:54:52.154Z,60.53
2018-09-21T20:57:21.032Z,61.35
2018-09-21T20:59:52.183Z,62.26
2018-09-21T21:02:21.135Z,62.60
2018-09-21T21:04:49.956Z,62.73
2018-09-21T21:07:19.222Z,62.60
2018-09-21T21:09:48.097Z,62.83
2018-09-21T21:12:17.453Z,61.24
2018-09-21T21:14:46.729Z,63.29
2018-09-21T21:17:15.673Z,63.20
2018-09-21T21:19:44.592Z,63.07
2018-09-21T21:22:13.476Z,62.38
2018-09-21T21:24:49.005Z,62.48
2018-09-21T21:27:18.206Z,61.96
2018-09-21T21:29:47.240Z,60.26
2018-09-21T21:32:16.326Z,58.67
2018-09-21T21:34:45.554Z,58.25
2018-09-21T21:37:14.429Z,57.74
2018-09-21T21:39:43.414Z,56.82
2018-09-21T21:42:12.790Z,57.40
2018-09-21T21:44:41.721Z,57.06
2018-09-21T21:47:10.572Z,55.78
2018-09-21T21:49:39.729Z,55.59
2018-09-21T21:52:08.636Z,55.23
2018-09-21T21:54:37.597Z,54.93
2018-09-21T21:57:06.884Z,55.30
2018-09-21T21:59:35.710Z,55.96
2018-09-21T22:02:09.404Z,55.35
2018-09-21T22:04:39.313Z,55.46
2018-09-21T22:07:08.860Z,55.38
2018-09-21T22:09:37.775Z,55.69
2018-09-21T22:12:12.157Z,54.88
2018-09-21T22:14:41.156Z,54.61
2018-09-21T22:17:10.103Z,55.02
2018-09-21T22:19:40.366Z,54.96
2018-09-21T22:22:09.234Z,54.63
2018-09-21T22:24:38.189Z,54.08
2018-09-21T22:27:07.450Z,55.28
2018-09-21T22:29:36.338Z,53.84
2018-09-21T22:32:05.818Z,54.07
2018-09-21T22:34:34.764Z,53.30
2018-09-21T22:37:03.809Z,53.51
2018-09-21T22:39:32.951Z,54.23
2018-09-21T22:42:02.437Z,55.07
2018-09-21T22:44:31.366Z,54.63
2018-09-21T22:47:00.545Z,55.14
2018-09-21T22:49:29.467Z,55.86
2018-09-21T22:51:58.365Z,54.07
2018-09-21T22:54:27.570Z,54.25
2018-09-21T22:56:56.461Z,53.94
2018-09-21T22:59:25.312Z,53.39
2018-09-21T23:01:54.477Z,53.91
2018-09-21T23:04:23.338Z,53.71
2018-09-21T23:06:52.283Z,53.90
2018-09-21T23:09:21.461Z,54.13
2018-09-21T23:11:50.349Z,54.38
2018-09-21T23:14:20.122Z,54.20
2018-09-21T23:17:03.739Z,55.51
2018-09-21T23:19:32.625Z,56.19
2018-09-21T23:22:01.585Z,56.62
2018-09-21T23:24:30.742Z,56.27
2018-09-21T23:26:59.617Z,56.08
2018-09-21T23:29:28.505Z,56.48
2018-09-21T23:31:57.349Z,56.35
2018-09-21T23:34:26.751Z,56.16
2018-09-21T23:36:55.617Z,57.07
2018-09-21T23:39:24.840Z,57.84
2018-09-21T23:41:53.718Z,57.44
2018-09-21T23:44:22.555Z,58.25
2018-09-21T23:46:51.929Z,56.45
2018-09-21T23:49:20.864Z,56.60
2018-09-21T23:51:49.716Z,57.34
2018-09-21T23:54:18.608Z,57.41
2018-09-21T23:56:47.837Z,57.11
2018-09-21T23:59:16.710Z,57.59
